Rawlins, WY (82301)

10:34 PM MDT on September 01, 2015 (GMT -0600)
Highland Towne | | Change Station
CLOSE
Current Station
Personal Weather Station
Location: Rawlins, WY
Elevation: 6831 ft
Nearby Weather Stations
Active Advisory: Fire Weather Warning

Elev 6831 ft 41.82 °N, 107.22 °W | Updated 11 minutes ago

Clear
Clear
63.1 °F
Feels Like 63.1 °F
N
0.0
Wind Variable Wind from South

Today
High -- | Low -- °F
--% Chance of Precip.
Yesterday
High -- | Low -- °F
Precip. -- in
6:34 AM 7:42 PM
Waning Gibbous, 83% visible
Pressure 29.90 in
Visibility 10.0 miles
Clouds Clear
Dew Point 40 °F
Humidity 42%
Rainfall 0.00 in
Snow Depth Not available.
UV 0 out of 12
Pollen 9.50 out of 12
Air Quality Not available.
Flu Activity Not available.
METAR KRWL 020353Z AUTO 18010KT 10SM CLR 19/03 A3020 RMK AO2 PK WND 18029/0257 SLP125 T01890028
Pressure 29.90 in
Visibility 10.0 miles
Clouds Clear
Dew Point 40 °F
Humidity 42%
Rainfall 0.00 in
Snow Depth Not available.
UV 0 out of 12
Pollen 9.50 out of 12
Air Quality Not available.
Flu Activity Not available.
METAR KRWL 020353Z AUTO 18010KT 10SM CLR 19/03 A3020 RMK AO2 PK WND 18029/0257 SLP125 T01890028

10-Day Weather Forecast

×

Almanac

Astronomy

Sep. 01, 2015 Rise Set
Actual Time
Civil Twilight
Nautical Twilight
Astronomical Twilight
Moon
Length of Visible Light
Length of Day
Tomorrow will be .
, % of the Moon is Illuminated

Today's Extremes

State Highs State Lows

Community

WunderPhotos

Upload Photos

1,851,695 photos uploaded!

WunderBlogs® & News

Nearby

Air Quality

  Air Quality AQ Index Pollutant
Not available.

Snow Depth

Station Depth Elevation

Earthquake Activity

City Distance Mag. Time & Date
Minimum magnitude displayed is 2.5.

Coastal Water Temperatures

Place Temperature

Stations

Nearby Weather Stations

Station Location Temp. Windchill Dew Point Humidity Wind Precip. Elev Updated Type
                   
Fire Weather Warning
Statement as of 6:06 PM MDT on September 01, 2015

... Red flag warning remains in effect from noon to 7 PM MDT
Wednesday for gusty winds and low humidities for fire weather
zones 301... 302... 303... 304... 306 and 308...

* wind... west to southwest winds of 15 to 25 mph sustained with
gusts to 35 mph.

* Humidity... late morning to afternoon humidities falling into
the upper single digits to lower teens.

* Impacts... any fires that develop will likely spread rapidly.
Outdoor burning is not recommended Wednesday.

Precautionary/preparedness actions...

A red flag warning means that critical fire weather conditions
are either occurring now... or will shortly. A combination of
strong winds... low relative humidity... and warm temperatures may
lead to extreme fire behavior.